sensor_id;sensor_type;location;lat;lon;timestamp;P1;durP1;ratioP1;P2;durP2;ratioP2
35877;SDS011;21982;49.804;24.072;2022-12-18T00:19:04;44.63;;;19.80;;
35877;SDS011;21982;49.804;24.072;2022-12-18T00:21:31;49.77;;;21.80;;
35877;SDS011;21982;49.804;24.072;2022-12-18T00:23:57;44.20;;;21.53;;
35877;SDS011;21982;49.804;24.072;2022-12-18T00:26:27;56.40;;;24.30;;
35877;SDS011;21982;49.804;24.072;2022-12-18T00:28:55;40.30;;;19.43;;
35877;SDS011;21982;49.804;24.072;2022-12-18T00:31:24;46.40;;;21.63;;
35877;SDS011;21982;49.804;24.072;2022-12-18T00:33:51;44.50;;;20.63;;
35877;SDS011;21982;49.804;24.072;2022-12-18T00:36:25;42.50;;;19.27;;
35877;SDS011;21982;49.804;24.072;2022-12-18T00:38:58;47.95;;;19.63;;
35877;SDS011;21982;49.804;24.072;2022-12-18T00:41:24;52.47;;;23.43;;
35877;SDS011;21982;49.804;24.072;2022-12-18T00:44:09;47.15;;;21.38;;
35877;SDS011;21982;49.804;24.072;2022-12-18T00:46:37;44.70;;;21.03;;
35877;SDS011;21982;49.804;24.072;2022-12-18T00:49:02;45.93;;;20.57;;
35877;SDS011;21982;49.804;24.072;2022-12-18T00:51:28;45.07;;;21.23;;
35877;SDS011;21982;49.804;24.072;2022-12-18T00:53:53;38.37;;;18.03;;
35877;SDS011;21982;49.804;24.072;2022-12-18T00:56:19;37.93;;;18.43;;
35877;SDS011;21982;49.804;24.072;2022-12-18T00:58:47;41.60;;;21.60;;
35877;SDS011;21982;49.804;24.072;2022-12-18T01:01:12;45.53;;;19.20;;
35877;SDS011;21982;49.804;24.072;2022-12-18T01:03:38;35.43;;;18.77;;
35877;SDS011;21982;49.804;24.072;2022-12-18T01:06:07;40.03;;;19.30;;
35877;SDS011;21982;49.804;24.072;2022-12-18T01:08:34;48.07;;;22.27;;
35877;SDS011;21982;49.804;24.072;2022-12-18T01:11:11;43.97;;;22.20;;
35877;SDS011;21982;49.804;24.072;2022-12-18T01:13:39;47.20;;;19.43;;
35877;SDS011;21982;49.804;24.072;2022-12-18T01:16:05;46.80;;;21.97;;
35877;SDS011;21982;49.804;24.072;2022-12-18T01:18:31;49.23;;;20.03;;
35877;SDS011;21982;49.804;24.072;2022-12-18T01:20:56;44.97;;;20.30;;
35877;SDS011;21982;49.804;24.072;2022-12-18T01:23:23;45.83;;;19.63;;
35877;SDS011;21982;49.804;24.072;2022-12-18T01:25:52;39.77;;;19.97;;
35877;SDS011;21982;49.804;24.072;2022-12-18T01:28:17;42.47;;;19.23;;
35877;SDS011;21982;49.804;24.072;2022-12-18T01:30:42;45.40;;;21.13;;
35877;SDS011;21982;49.804;24.072;2022-12-18T01:33:08;38.23;;;19.80;;
35877;SDS011;21982;49.804;24.072;2022-12-18T01:35:33;54.37;;;21.50;;
35877;SDS011;21982;49.804;24.072;2022-12-18T01:38:06;47.07;;;21.23;;
35877;SDS011;21982;49.804;24.072;2022-12-18T01:40:31;46.47;;;19.57;;
35877;SDS011;21982;49.804;24.072;2022-12-18T01:42:57;41.20;;;18.33;;
35877;SDS011;21982;49.804;24.072;2022-12-18T01:45:26;43.10;;;20.10;;
35877;SDS011;21982;49.804;24.072;2022-12-18T01:48:00;40.47;;;18.83;;
35877;SDS011;21982;49.804;24.072;2022-12-18T01:50:38;38.73;;;17.80;;
35877;SDS011;21982;49.804;24.072;2022-12-18T01:53:10;45.87;;;19.23;;
35877;SDS011;21982;49.804;24.072;2022-12-18T01:55:48;42.57;;;21.93;;
35877;SDS011;21982;49.804;24.072;2022-12-18T01:58:17;45.20;;;18.17;;
35877;SDS011;21982;49.804;24.072;2022-12-18T02:00:44;41.37;;;18.00;;
35877;SDS011;21982;49.804;24.072;2022-12-18T02:03:09;43.97;;;21.20;;
35877;SDS011;21982;49.804;24.072;2022-12-18T02:08:19;44.80;;;20.13;;
35877;SDS011;21982;49.804;24.072;2022-12-18T02:16:34;49.10;;;19.37;;
35877;SDS011;21982;49.804;24.072;2022-12-18T02:19:03;46.13;;;18.90;;
35877;SDS011;21982;49.804;24.072;2022-12-18T02:22:06;53.60;;;19.60;;
35877;SDS011;21982;49.804;24.072;2022-12-18T02:24:45;47.77;;;20.93;;
35877;SDS011;21982;49.804;24.072;2022-12-18T02:27:24;50.17;;;19.20;;
35877;SDS011;21982;49.804;24.072;2022-12-18T02:29:50;45.87;;;18.87;;
35877;SDS011;21982;49.804;24.072;2022-12-18T02:32:20;47.57;;;19.80;;
35877;SDS011;21982;49.804;24.072;2022-12-18T02:34:49;51.57;;;21.07;;
35877;SDS011;21982;49.804;24.072;2022-12-18T02:37:16;42.67;;;17.40;;
35877;SDS011;21982;49.804;24.072;2022-12-18T02:39:44;42.40;;;18.93;;
35877;SDS011;21982;49.804;24.072;2022-12-18T02:42:12;40.70;;;19.13;;
35877;SDS011;21982;49.804;24.072;2022-12-18T02:44:42;45.43;;;18.77;;
35877;SDS011;21982;49.804;24.072;2022-12-18T02:47:16;56.17;;;21.27;;
35877;SDS011;21982;49.804;24.072;2022-12-18T02:49:48;48.50;;;19.40;;
35877;SDS011;21982;49.804;24.072;2022-12-18T02:55:10;46.87;;;19.13;;
35877;SDS011;21982;49.804;24.072;2022-12-18T02:57:50;39.70;;;17.87;;
35877;SDS011;21982;49.804;24.072;2022-12-18T03:01:05;47.43;;;19.07;;
35877;SDS011;21982;49.804;24.072;2022-12-18T03:03:19;42.20;;;16.53;;
35877;SDS011;21982;49.804;24.072;2022-12-18T03:06:10;42.20;;;16.70;;
35877;SDS011;21982;49.804;24.072;2022-12-18T07:31:12;31.33;;;13.00;;
35877;SDS011;21982;49.804;24.072;2022-12-18T07:33:40;33.60;;;11.93;;
35877;SDS011;21982;49.804;24.072;2022-12-18T07:36:06;33.83;;;14.13;;
35877;SDS011;21982;49.804;24.072;2022-12-18T07:38:33;31.40;;;12.23;;
35877;SDS011;21982;49.804;24.072;2022-12-18T07:41:06;33.00;;;13.23;;
35877;SDS011;21982;49.804;24.072;2022-12-18T07:43:33;33.38;;;15.15;;
35877;SDS011;21982;49.804;24.072;2022-12-18T07:46:00;29.67;;;12.90;;
35877;SDS011;21982;49.804;24.072;2022-12-18T07:48:27;41.93;;;14.70;;
35877;SDS011;21982;49.804;24.072;2022-12-18T07:51:02;34.10;;;14.53;;
35877;SDS011;21982;49.804;24.072;2022-12-18T07:53:30;31.92;;;14.57;;
35877;SDS011;21982;49.804;24.072;2022-12-18T07:55:56;38.83;;;16.57;;
35877;SDS011;21982;49.804;24.072;2022-12-18T07:58:22;34.93;;;16.07;;
35877;SDS011;21982;49.804;24.072;2022-12-18T08:00:47;37.47;;;13.77;;
35877;SDS011;21982;49.804;24.072;2022-12-18T08:03:13;33.63;;;14.17;;
35877;SDS011;21982;49.804;24.072;2022-12-18T08:05:38;30.20;;;13.10;;
35877;SDS011;21982;49.804;24.072;2022-12-18T08:08:03;34.67;;;14.20;;
35877;SDS011;21982;49.804;24.072;2022-12-18T08:10:29;34.37;;;17.23;;
35877;SDS011;21982;49.804;24.072;2022-12-18T08:12:55;37.87;;;14.47;;
35877;SDS011;21982;49.804;24.072;2022-12-18T08:15:21;36.70;;;16.40;;
35877;SDS011;21982;49.804;24.072;2022-12-18T08:17:47;39.47;;;16.40;;
35877;SDS011;21982;49.804;24.072;2022-12-18T08:20:16;41.40;;;17.20;;
35877;SDS011;21982;49.804;24.072;2022-12-18T08:22:46;39.37;;;16.23;;
35877;SDS011;21982;49.804;24.072;2022-12-18T08:25:11;36.50;;;17.77;;
35877;SDS011;21982;49.804;24.072;2022-12-18T08:27:36;29.43;;;14.57;;
35877;SDS011;21982;49.804;24.072;2022-12-18T08:30:02;38.60;;;16.50;;
35877;SDS011;21982;49.804;24.072;2022-12-18T08:32:29;35.73;;;14.53;;
35877;SDS011;21982;49.804;24.072;2022-12-18T08:34:54;35.70;;;15.03;;
35877;SDS011;21982;49.804;24.072;2022-12-18T08:37:19;31.23;;;15.70;;
35877;SDS011;21982;49.804;24.072;2022-12-18T08:39:45;32.60;;;14.20;;
35877;SDS011;21982;49.804;24.072;2022-12-18T08:42:10;39.20;;;14.53;;
35877;SDS011;21982;49.804;24.072;2022-12-18T08:44:55;30.48;;;11.90;;
35877;SDS011;21982;49.804;24.072;2022-12-18T08:47:20;37.03;;;14.00;;
35877;SDS011;21982;49.804;24.072;2022-12-18T08:49:45;33.73;;;14.77;;
35877;SDS011;21982;49.804;24.072;2022-12-18T08:52:11;34.17;;;14.87;;
35877;SDS011;21982;49.804;24.072;2022-12-18T08:54:39;35.93;;;16.67;;
35877;SDS011;21982;49.804;24.072;2022-12-18T08:57:04;32.90;;;13.97;;
35877;SDS011;21982;49.804;24.072;2022-12-18T08:59:29;31.97;;;14.70;;
35877;SDS011;21982;49.804;24.072;2022-12-18T09:01:55;29.77;;;16.17;;
35877;SDS011;21982;49.804;24.072;2022-12-18T09:04:20;30.27;;;14.57;;
35877;SDS011;21982;49.804;24.072;2022-12-18T09:06:46;38.80;;;14.37;;
35877;SDS011;21982;49.804;24.072;2022-12-18T09:09:12;33.50;;;14.07;;
35877;SDS011;21982;49.804;24.072;2022-12-18T09:11:37;28.23;;;14.17;;
35877;SDS011;21982;49.804;24.072;2022-12-18T09:14:03;29.03;;;13.63;;
35877;SDS011;21982;49.804;24.072;2022-12-18T09:16:28;35.97;;;15.50;;
35877;SDS011;21982;49.804;24.072;2022-12-18T09:18:54;36.13;;;14.87;;
35877;SDS011;21982;49.804;24.072;2022-12-18T09:21:25;26.20;;;13.30;;
35877;SDS011;21982;49.804;24.072;2022-12-18T09:23:53;38.53;;;15.07;;
35877;SDS011;21982;49.804;24.072;2022-12-18T09:26:20;36.00;;;14.97;;
35877;SDS011;21982;49.804;24.072;2022-12-18T09:28:46;29.33;;;13.87;;
35877;SDS011;21982;49.804;24.072;2022-12-18T09:31:14;37.20;;;14.57;;
35877;SDS011;21982;49.804;24.072;2022-12-18T09:33:40;33.13;;;13.73;;
35877;SDS011;21982;49.804;24.072;2022-12-18T09:36:06;37.93;;;14.93;;
35877;SDS011;21982;49.804;24.072;2022-12-18T09:38:33;32.60;;;15.20;;
35877;SDS011;21982;49.804;24.072;2022-12-18T09:41:01;40.50;;;14.83;;
35877;SDS011;21982;49.804;24.072;2022-12-18T09:46:51;34.50;;;14.63;;
35877;SDS011;21982;49.804;24.072;2022-12-18T09:49:18;32.73;;;14.13;;
35877;SDS011;21982;49.804;24.072;2022-12-18T09:51:54;33.17;;;13.67;;
35877;SDS011;21982;49.804;24.072;2022-12-18T09:54:34;35.57;;;14.23;;
35877;SDS011;21982;49.804;24.072;2022-12-18T09:57:18;32.60;;;14.70;;
35877;SDS011;21982;49.804;24.072;2022-12-18T09:59:49;27.47;;;14.10;;
35877;SDS011;21982;49.804;24.072;2022-12-18T10:02:22;29.17;;;12.30;;
35877;SDS011;21982;49.804;24.072;2022-12-18T10:05:00;32.13;;;14.20;;
35877;SDS011;21982;49.804;24.072;2022-12-18T10:10:32;34.47;;;14.10;;
35877;SDS011;21982;49.804;24.072;2022-12-18T10:21:10;33.90;;;14.88;;
35877;SDS011;21982;49.804;24.072;2022-12-18T10:23:49;32.00;;;15.03;;
35877;SDS011;21982;49.804;24.072;2022-12-18T10:26:30;38.83;;;13.27;;
35877;SDS011;21982;49.804;24.072;2022-12-18T10:28:57;28.57;;;16.17;;
35877;SDS011;21982;49.804;24.072;2022-12-18T10:31:24;33.50;;;15.37;;
35877;SDS011;21982;49.804;24.072;2022-12-18T10:33:50;24.40;;;12.70;;
35877;SDS011;21982;49.804;24.072;2022-12-18T10:36:16;26.00;;;12.50;;
35877;SDS011;21982;49.804;24.072;2022-12-18T10:38:42;23.43;;;11.50;;
35877;SDS011;21982;49.804;24.072;2022-12-18T10:44:14;26.10;;;12.80;;
35877;SDS011;21982;49.804;24.072;2022-12-18T10:46:40;28.77;;;13.80;;
35877;SDS011;21982;49.804;24.072;2022-12-18T10:49:07;25.50;;;11.57;;
35877;SDS011;21982;49.804;24.072;2022-12-18T10:51:44;30.57;;;13.73;;
35877;SDS011;21982;49.804;24.072;2022-12-18T10:54:21;30.80;;;13.60;;
35877;SDS011;21982;49.804;24.072;2022-12-18T10:56:48;28.27;;;12.90;;
35877;SDS011;21982;49.804;24.072;2022-12-18T10:59:15;25.70;;;13.93;;
35877;SDS011;21982;49.804;24.072;2022-12-18T11:04:20;26.60;;;11.63;;
35877;SDS011;21982;49.804;24.072;2022-12-18T11:09:20;31.83;;;12.53;;
35877;SDS011;21982;49.804;24.072;2022-12-18T11:12:04;27.93;;;11.43;;
35877;SDS011;21982;49.804;24.072;2022-12-18T11:14:48;27.70;;;12.93;;
35877;SDS011;21982;49.804;24.072;2022-12-18T11:17:21;31.00;;;14.27;;
35877;SDS011;21982;49.804;24.072;2022-12-18T11:19:56;29.77;;;13.93;;
35877;SDS011;21982;49.804;24.072;2022-12-18T11:22:27;29.07;;;13.10;;
35877;SDS011;21982;49.804;24.072;2022-12-18T11:24:59;26.80;;;12.03;;
35877;SDS011;21982;49.804;24.072;2022-12-18T11:27:25;26.20;;;12.20;;
35877;SDS011;21982;49.804;24.072;2022-12-18T11:29:51;28.67;;;12.60;;
35877;SDS011;21982;49.804;24.072;2022-12-18T11:32:22;23.90;;;11.33;;
35877;SDS011;21982;49.804;24.072;2022-12-18T11:34:58;24.07;;;13.57;;
35877;SDS011;21982;49.804;24.072;2022-12-18T11:37:28;22.63;;;12.53;;
35877;SDS011;21982;49.804;24.072;2022-12-18T11:40:09;23.67;;;13.17;;
35877;SDS011;21982;49.804;24.072;2022-12-18T11:42:41;21.25;;;9.75;;
35877;SDS011;21982;49.804;24.072;2022-12-18T11:45:24;26.73;;;11.43;;
35877;SDS011;21982;49.804;24.072;2022-12-18T11:50:51;29.63;;;12.53;;
35877;SDS011;21982;49.804;24.072;2022-12-18T11:53:19;26.03;;;12.33;;
35877;SDS011;21982;49.804;24.072;2022-12-18T11:58:29;26.08;;;12.30;;
35877;SDS011;21982;49.804;24.072;2022-12-18T12:09:44;27.80;;;11.50;;
35877;SDS011;21982;49.804;24.072;2022-12-18T12:17:57;27.20;;;13.75;;
35877;SDS011;21982;49.804;24.072;2022-12-18T12:23:33;23.00;;;11.60;;
35877;SDS011;21982;49.804;24.072;2022-12-18T12:39:39;22.60;;;11.27;;
35877;SDS011;21982;49.804;24.072;2022-12-18T12:42:51;27.10;;;12.50;;
35877;SDS011;21982;49.804;24.072;2022-12-18T12:45:37;23.37;;;10.83;;
35877;SDS011;21982;49.804;24.072;2022-12-18T12:48:27;26.67;;;11.60;;
35877;SDS011;21982;49.804;24.072;2022-12-18T12:51:00;24.10;;;11.23;;
35877;SDS011;21982;49.804;24.072;2022-12-18T12:57:21;26.33;;;10.97;;
35877;SDS011;21982;49.804;24.072;2022-12-18T13:07:26;25.87;;;15.30;;
35877;SDS011;21982;49.804;24.072;2022-12-18T13:12:59;28.23;;;12.73;;
35877;SDS011;21982;49.804;24.072;2022-12-18T13:15:32;23.30;;;11.93;;
35877;SDS011;21982;49.804;24.072;2022-12-18T13:18:29;23.07;;;11.00;;
35877;SDS011;21982;49.804;24.072;2022-12-18T13:26:27;21.87;;;10.10;;
35877;SDS011;21982;49.804;24.072;2022-12-18T13:28:49;23.07;;;10.70;;
35877;SDS011;21982;49.804;24.072;2022-12-18T13:36:44;22.37;;;10.43;;
35877;SDS011;21982;49.804;24.072;2022-12-18T13:42:37;29.10;;;12.53;;
35877;SDS011;21982;49.804;24.072;2022-12-18T13:47:00;24.20;;;12.80;;
35877;SDS011;21982;49.804;24.072;2022-12-18T13:52:20;28.10;;;12.93;;
35877;SDS011;21982;49.804;24.072;2022-12-18T13:54:54;24.33;;;11.20;;
35877;SDS011;21982;49.804;24.072;2022-12-18T13:57:31;26.50;;;11.67;;
35877;SDS011;21982;49.804;24.072;2022-12-18T13:59:57;24.20;;;10.00;;
35877;SDS011;21982;49.804;24.072;2022-12-18T14:02:24;21.03;;;11.30;;
35877;SDS011;21982;49.804;24.072;2022-12-18T14:04:52;23.40;;;10.63;;
35877;SDS011;21982;49.804;24.072;2022-12-18T14:07:19;23.83;;;11.87;;
35877;SDS011;21982;49.804;24.072;2022-12-18T14:09:58;24.60;;;12.37;;
35877;SDS011;21982;49.804;24.072;2022-12-18T14:12:32;27.20;;;12.30;;
35877;SDS011;21982;49.804;24.072;2022-12-18T14:17:50;30.10;;;12.57;;
35877;SDS011;21982;49.804;24.072;2022-12-18T14:20:39;25.80;;;12.33;;
35877;SDS011;21982;49.804;24.072;2022-12-18T14:25:57;23.83;;;12.13;;
35877;SDS011;21982;49.804;24.072;2022-12-18T14:28:23;29.97;;;13.47;;
35877;SDS011;21982;49.804;24.072;2022-12-18T14:30:50;28.57;;;14.50;;
35877;SDS011;21982;49.804;24.072;2022-12-18T14:33:20;29.80;;;13.03;;
35877;SDS011;21982;49.804;24.072;2022-12-18T14:36:01;25.63;;;12.87;;
35877;SDS011;21982;49.804;24.072;2022-12-18T14:38:37;28.17;;;13.00;;
35877;SDS011;21982;49.804;24.072;2022-12-18T14:41:05;24.80;;;10.77;;
35877;SDS011;21982;49.804;24.072;2022-12-18T14:43:35;23.90;;;10.63;;
35877;SDS011;21982;49.804;24.072;2022-12-18T14:46:03;19.33;;;10.03;;
35877;SDS011;21982;49.804;24.072;2022-12-18T14:51:05;23.80;;;12.53;;
35877;SDS011;21982;49.804;24.072;2022-12-18T14:53:36;21.33;;;11.90;;
35877;SDS011;21982;49.804;24.072;2022-12-18T14:56:26;26.57;;;12.40;;
35877;SDS011;21982;49.804;24.072;2022-12-18T14:59:16;21.83;;;11.03;;
35877;SDS011;21982;49.804;24.072;2022-12-18T15:04:23;26.20;;;12.80;;
35877;SDS011;21982;49.804;24.072;2022-12-18T15:09:36;25.57;;;12.87;;
35877;SDS011;21982;49.804;24.072;2022-12-18T15:12:02;29.00;;;12.70;;
35877;SDS011;21982;49.804;24.072;2022-12-18T15:26:37;22.63;;;10.87;;
35877;SDS011;21982;49.804;24.072;2022-12-18T15:29:03;22.73;;;10.73;;
35877;SDS011;21982;49.804;24.072;2022-12-18T15:37:06;21.47;;;12.53;;
35877;SDS011;21982;49.804;24.072;2022-12-18T15:39:32;20.00;;;10.20;;
35877;SDS011;21982;49.804;24.072;2022-12-18T19:17:11;34.47;;;15.83;;
35877;SDS011;21982;49.804;24.072;2022-12-18T19:19:37;27.43;;;13.90;;
35877;SDS011;21982;49.804;24.072;2022-12-18T19:22:03;30.60;;;13.80;;
35877;SDS011;21982;49.804;24.072;2022-12-18T19:24:34;26.37;;;11.23;;
35877;SDS011;21982;49.804;24.072;2022-12-18T19:27:00;26.03;;;11.43;;
35877;SDS011;21982;49.804;24.072;2022-12-18T19:29:25;24.27;;;11.70;;
35877;SDS011;21982;49.804;24.072;2022-12-18T19:31:50;25.27;;;12.23;;
35877;SDS011;21982;49.804;24.072;2022-12-18T19:34:16;27.57;;;12.83;;
35877;SDS011;21982;49.804;24.072;2022-12-18T19:36:41;30.30;;;15.37;;
35877;SDS011;21982;49.804;24.072;2022-12-18T19:39:11;29.37;;;12.73;;
35877;SDS011;21982;49.804;24.072;2022-12-18T19:41:39;27.60;;;12.50;;
35877;SDS011;21982;49.804;24.072;2022-12-18T19:44:04;25.00;;;10.87;;
35877;SDS011;21982;49.804;24.072;2022-12-18T19:46:30;26.93;;;12.73;;
35877;SDS011;21982;49.804;24.072;2022-12-18T19:48:57;26.40;;;11.60;;
35877;SDS011;21982;49.804;24.072;2022-12-18T19:51:24;23.63;;;10.37;;
35877;SDS011;21982;49.804;24.072;2022-12-18T19:53:51;22.33;;;11.17;;
35877;SDS011;21982;49.804;24.072;2022-12-18T19:56:18;29.27;;;12.00;;
35877;SDS011;21982;49.804;24.072;2022-12-18T19:58:45;25.77;;;11.07;;
35877;SDS011;21982;49.804;24.072;2022-12-18T20:01:17;20.50;;;8.97;;
35877;SDS011;21982;49.804;24.072;2022-12-18T20:03:44;20.13;;;9.17;;
35877;SDS011;21982;49.804;24.072;2022-12-18T20:06:11;25.33;;;11.43;;
35877;SDS011;21982;49.804;24.072;2022-12-18T20:08:39;27.83;;;13.87;;
35877;SDS011;21982;49.804;24.072;2022-12-18T20:11:06;24.80;;;12.00;;
35877;SDS011;21982;49.804;24.072;2022-12-18T20:13:31;17.00;;;7.83;;
35877;SDS011;21982;49.804;24.072;2022-12-18T20:15:57;19.33;;;7.73;;
35877;SDS011;21982;49.804;24.072;2022-12-18T20:18:23;18.43;;;7.10;;
35877;SDS011;21982;49.804;24.072;2022-12-18T20:20:51;16.10;;;6.83;;
35877;SDS011;21982;49.804;24.072;2022-12-18T20:23:20;20.07;;;8.73;;
35877;SDS011;21982;49.804;24.072;2022-12-18T20:25:46;18.73;;;7.80;;
35877;SDS011;21982;49.804;24.072;2022-12-18T20:28:12;17.07;;;7.27;;
35877;SDS011;21982;49.804;24.072;2022-12-18T20:30:38;18.50;;;8.87;;
35877;SDS011;21982;49.804;24.072;2022-12-18T20:33:03;16.43;;;7.70;;
35877;SDS011;21982;49.804;24.072;2022-12-18T20:35:30;20.50;;;8.23;;
35877;SDS011;21982;49.804;24.072;2022-12-18T20:37:56;15.10;;;7.27;;
35877;SDS011;21982;49.804;24.072;2022-12-18T20:40:23;19.33;;;8.27;;
35877;SDS011;21982;49.804;24.072;2022-12-18T20:42:49;23.93;;;7.67;;
35877;SDS011;21982;49.804;24.072;2022-12-18T20:45:14;19.37;;;9.20;;
35877;SDS011;21982;49.804;24.072;2022-12-18T20:47:40;19.63;;;7.87;;
35877;SDS011;21982;49.804;24.072;2022-12-18T20:50:05;18.73;;;8.03;;
35877;SDS011;21982;49.804;24.072;2022-12-18T20:52:31;16.03;;;7.63;;
35877;SDS011;21982;49.804;24.072;2022-12-18T20:54:57;15.27;;;7.10;;
35877;SDS011;21982;49.804;24.072;2022-12-18T20:57:22;17.77;;;7.63;;
35877;SDS011;21982;49.804;24.072;2022-12-18T20:59:48;21.40;;;7.50;;
35877;SDS011;21982;49.804;24.072;2022-12-18T21:02:14;16.37;;;7.23;;
35877;SDS011;21982;49.804;24.072;2022-12-18T21:04:40;16.37;;;7.30;;
35877;SDS011;21982;49.804;24.072;2022-12-18T21:07:06;14.83;;;6.07;;
35877;SDS011;21982;49.804;24.072;2022-12-18T21:09:32;18.60;;;6.80;;
35877;SDS011;21982;49.804;24.072;2022-12-18T21:11:57;15.97;;;6.93;;
35877;SDS011;21982;49.804;24.072;2022-12-18T21:14:42;15.00;;;6.90;;
35877;SDS011;21982;49.804;24.072;2022-12-18T21:17:08;16.53;;;7.33;;
35877;SDS011;21982;49.804;24.072;2022-12-18T21:25:24;19.43;;;8.60;;
35877;SDS011;21982;49.804;24.072;2022-12-18T21:27:51;18.37;;;8.73;;
35877;SDS011;21982;49.804;24.072;2022-12-18T21:30:16;15.80;;;6.50;;
35877;SDS011;21982;49.804;24.072;2022-12-18T21:32:42;14.43;;;7.27;;
35877;SDS011;21982;49.804;24.072;2022-12-18T21:35:07;22.67;;;7.40;;
35877;SDS011;21982;49.804;24.072;2022-12-18T21:37:33;15.23;;;6.80;;
35877;SDS011;21982;49.804;24.072;2022-12-18T21:39:58;14.53;;;6.30;;
35877;SDS011;21982;49.804;24.072;2022-12-18T21:42:23;16.47;;;8.30;;
35877;SDS011;21982;49.804;24.072;2022-12-18T21:45:08;17.90;;;7.83;;
35877;SDS011;21982;49.804;24.072;2022-12-18T21:47:34;18.17;;;7.37;;
35877;SDS011;21982;49.804;24.072;2022-12-18T21:50:00;16.37;;;7.53;;
35877;SDS011;21982;49.804;24.072;2022-12-18T21:52:25;16.47;;;7.33;;
35877;SDS011;21982;49.804;24.072;2022-12-18T21:54:50;17.20;;;7.73;;
35877;SDS011;21982;49.804;24.072;2022-12-18T21:57:16;16.30;;;7.50;;
35877;SDS011;21982;49.804;24.072;2022-12-18T21:59:42;24.60;;;11.60;;
35877;SDS011;21982;49.804;24.072;2022-12-18T22:02:12;19.07;;;8.50;;
35877;SDS011;21982;49.804;24.072;2022-12-18T22:04:43;21.85;;;9.55;;
35877;SDS011;21982;49.804;24.072;2022-12-18T22:07:09;20.97;;;9.03;;
35877;SDS011;21982;49.804;24.072;2022-12-18T22:09:34;16.37;;;7.53;;
35877;SDS011;21982;49.804;24.072;2022-12-18T22:12:00;16.97;;;7.53;;
35877;SDS011;21982;49.804;24.072;2022-12-18T22:14:25;13.70;;;6.80;;
35877;SDS011;21982;49.804;24.072;2022-12-18T22:16:51;18.20;;;7.10;;
35877;SDS011;21982;49.804;24.072;2022-12-18T22:19:17;17.20;;;8.77;;
35877;SDS011;21982;49.804;24.072;2022-12-18T22:21:44;17.37;;;6.37;;
35877;SDS011;21982;49.804;24.072;2022-12-18T22:24:12;14.27;;;6.37;;
35877;SDS011;21982;49.804;24.072;2022-12-18T22:46:22;15.13;;;6.40;;
35877;SDS011;21982;49.804;24.072;2022-12-18T22:48:49;18.23;;;6.80;;
35877;SDS011;21982;49.804;24.072;2022-12-18T22:51:15;15.73;;;6.37;;
35877;SDS011;21982;49.804;24.072;2022-12-18T22:53:42;14.80;;;5.63;;
35877;SDS011;21982;49.804;24.072;2022-12-18T22:56:08;15.20;;;6.63;;
35877;SDS011;21982;49.804;24.072;2022-12-18T22:58:34;13.20;;;4.87;;
35877;SDS011;21982;49.804;24.072;2022-12-18T23:01:00;14.17;;;5.47;;
35877;SDS011;21982;49.804;24.072;2022-12-18T23:03:25;16.20;;;6.23;;
35877;SDS011;21982;49.804;24.072;2022-12-18T23:05:51;11.77;;;5.43;;
35877;SDS011;21982;49.804;24.072;2022-12-18T23:08:16;10.90;;;5.53;;
35877;SDS011;21982;49.804;24.072;2022-12-18T23:10:42;9.07;;;5.20;;
35877;SDS011;21982;49.804;24.072;2022-12-18T23:13:07;14.40;;;5.23;;
35877;SDS011;21982;49.804;24.072;2022-12-18T23:15:32;13.37;;;5.77;;
35877;SDS011;21982;49.804;24.072;2022-12-18T23:17:58;10.87;;;5.53;;
35877;SDS011;21982;49.804;24.072;2022-12-18T23:20:24;15.17;;;6.07;;
35877;SDS011;21982;49.804;24.072;2022-12-18T23:22:50;13.73;;;6.37;;
35877;SDS011;21982;49.804;24.072;2022-12-18T23:25:16;14.13;;;6.27;;
35877;SDS011;21982;49.804;24.072;2022-12-18T23:27:42;19.27;;;6.87;;
35877;SDS011;21982;49.804;24.072;2022-12-18T23:30:08;15.20;;;7.60;;
35877;SDS011;21982;49.804;24.072;2022-12-18T23:32:35;12.60;;;5.90;;
35877;SDS011;21982;49.804;24.072;2022-12-18T23:35:01;15.77;;;7.13;;
35877;SDS011;21982;49.804;24.072;2022-12-18T23:37:26;18.10;;;5.57;;
35877;SDS011;21982;49.804;24.072;2022-12-18T23:39:52;12.00;;;5.80;;
35877;SDS011;21982;49.804;24.072;2022-12-18T23:42:17;15.37;;;5.83;;
35877;SDS011;21982;49.804;24.072;2022-12-18T23:44:43;15.40;;;6.07;;
35877;SDS011;21982;49.804;24.072;2022-12-18T23:47:08;13.60;;;6.53;;
35877;SDS011;21982;49.804;24.072;2022-12-18T23:49:34;15.30;;;6.77;;
35877;SDS011;21982;49.804;24.072;2022-12-18T23:51:59;11.90;;;6.53;;
35877;SDS011;21982;49.804;24.072;2022-12-18T23:54:24;18.47;;;7.57;;
35877;SDS011;21982;49.804;24.072;2022-12-18T23:56:50;15.93;;;6.90;;
35877;SDS011;21982;49.804;24.072;2022-12-18T23:59:15;16.77;;;7.43;;
